sensor_id;sensor_type;location;lat;lon;timestamp;P1;durP1;ratioP1;P2;durP2;ratioP2
59167;SDS011;44948;55.046;73.266;2022-08-01T00:00:47;7.68;;;6.80;;
59167;SDS011;44948;55.046;73.266;2022-08-01T00:03:09;12.80;;;6.85;;
59167;SDS011;44948;55.046;73.266;2022-08-01T00:05:24;7.30;;;6.60;;
59167;SDS011;44948;55.046;73.266;2022-08-01T00:07:37;8.23;;;7.15;;
59167;SDS011;44948;55.046;73.266;2022-08-01T00:09:34;7.57;;;6.63;;
59167;SDS011;44948;55.046;73.266;2022-08-01T00:11:21;10.32;;;7.30;;
59167;SDS011;44948;55.046;73.266;2022-08-01T00:13:06;8.32;;;6.78;;
59167;SDS011;44948;55.046;73.266;2022-08-01T00:14:57;8.82;;;6.80;;
59167;SDS011;44948;55.046;73.266;2022-08-01T00:17:45;8.98;;;6.95;;
59167;SDS011;44948;55.046;73.266;2022-08-01T00:19:45;10.55;;;6.97;;
59167;SDS011;44948;55.046;73.266;2022-08-01T00:21:48;7.60;;;6.57;;
59167;SDS011;44948;55.046;73.266;2022-08-01T00:24:09;8.05;;;6.38;;
59167;SDS011;44948;55.046;73.266;2022-08-01T00:25:58;9.63;;;6.32;;
59167;SDS011;44948;55.046;73.266;2022-08-01T00:27:46;8.45;;;7.55;;
59167;SDS011;44948;55.046;73.266;2022-08-01T00:30:04;7.90;;;7.05;;
59167;SDS011;44948;55.046;73.266;2022-08-01T00:31:58;8.10;;;7.03;;
59167;SDS011;44948;55.046;73.266;2022-08-01T00:33:44;11.38;;;7.07;;
59167;SDS011;44948;55.046;73.266;2022-08-01T00:35:39;10.32;;;7.45;;
59167;SDS011;44948;55.046;73.266;2022-08-01T00:37:33;9.07;;;6.97;;
59167;SDS011;44948;55.046;73.266;2022-08-01T00:39:18;9.25;;;7.10;;
59167;SDS011;44948;55.046;73.266;2022-08-01T00:41:18;9.85;;;7.30;;
59167;SDS011;44948;55.046;73.266;2022-08-01T00:43:04;9.93;;;7.93;;
59167;SDS011;44948;55.046;73.266;2022-08-01T00:47:36;9.38;;;7.80;;
59167;SDS011;44948;55.046;73.266;2022-08-01T00:49:40;9.83;;;7.30;;
59167;SDS011;44948;55.046;73.266;2022-08-01T00:51:41;9.68;;;7.55;;
59167;SDS011;44948;55.046;73.266;2022-08-01T00:53:41;9.40;;;7.32;;
59167;SDS011;44948;55.046;73.266;2022-08-01T00:55:33;10.63;;;7.65;;
59167;SDS011;44948;55.046;73.266;2022-08-01T00:57:29;9.98;;;7.88;;
59167;SDS011;44948;55.046;73.266;2022-08-01T00:59:18;8.20;;;7.30;;
59167;SDS011;44948;55.046;73.266;2022-08-01T01:01:15;11.57;;;8.15;;
59167;SDS011;44948;55.046;73.266;2022-08-01T01:03:02;12.00;;;8.13;;
59167;SDS011;44948;55.046;73.266;2022-08-01T01:05:06;13.77;;;8.07;;
59167;SDS011;44948;55.046;73.266;2022-08-01T01:07:01;8.43;;;7.63;;
59167;SDS011;44948;55.046;73.266;2022-08-01T01:11:53;8.63;;;7.47;;
59167;SDS011;44948;55.046;73.266;2022-08-01T01:13:45;8.98;;;7.95;;
59167;SDS011;44948;55.046;73.266;2022-08-01T01:15:59;9.95;;;7.72;;
59167;SDS011;44948;55.046;73.266;2022-08-01T01:18:03;10.70;;;8.63;;
59167;SDS011;44948;55.046;73.266;2022-08-01T01:19:59;12.18;;;7.85;;
59167;SDS011;44948;55.046;73.266;2022-08-01T01:22:06;9.27;;;7.88;;
59167;SDS011;44948;55.046;73.266;2022-08-01T01:29:55;9.90;;;7.55;;
59167;SDS011;44948;55.046;73.266;2022-08-01T01:31:59;8.63;;;7.40;;
59167;SDS011;44948;55.046;73.266;2022-08-01T01:34:30;9.20;;;7.88;;
59167;SDS011;44948;55.046;73.266;2022-08-01T01:39:02;11.43;;;8.57;;
59167;SDS011;44948;55.046;73.266;2022-08-01T01:41:12;10.18;;;7.97;;
59167;SDS011;44948;55.046;73.266;2022-08-01T01:43:01;12.63;;;8.48;;
59167;SDS011;44948;55.046;73.266;2022-08-01T01:47:43;9.55;;;7.57;;
59167;SDS011;44948;55.046;73.266;2022-08-01T01:49:39;10.00;;;7.97;;
59167;SDS011;44948;55.046;73.266;2022-08-01T01:51:27;12.50;;;8.48;;
59167;SDS011;44948;55.046;73.266;2022-08-01T01:53:25;9.98;;;8.25;;
59167;SDS011;44948;55.046;73.266;2022-08-01T01:55:18;10.52;;;7.80;;
59167;SDS011;44948;55.046;73.266;2022-08-01T01:57:41;9.00;;;7.97;;
59167;SDS011;44948;55.046;73.266;2022-08-01T01:59:56;10.65;;;8.02;;
59167;SDS011;44948;55.046;73.266;2022-08-01T02:02:15;9.52;;;8.52;;
59167;SDS011;44948;55.046;73.266;2022-08-01T02:07:19;9.45;;;8.48;;
59167;SDS011;44948;55.046;73.266;2022-08-01T02:09:47;9.82;;;8.70;;
59167;SDS011;44948;55.046;73.266;2022-08-01T02:11:48;10.77;;;8.05;;
59167;SDS011;44948;55.046;73.266;2022-08-01T02:16:26;10.60;;;8.38;;
59167;SDS011;44948;55.046;73.266;2022-08-01T02:18:57;11.30;;;8.90;;
59167;SDS011;44948;55.046;73.266;2022-08-01T02:21:09;10.15;;;8.30;;
59167;SDS011;44948;55.046;73.266;2022-08-01T02:23:12;10.57;;;8.55;;
59167;SDS011;44948;55.046;73.266;2022-08-01T02:30:37;11.32;;;7.90;;
59167;SDS011;44948;55.046;73.266;2022-08-01T02:33:05;11.50;;;8.27;;
59167;SDS011;44948;55.046;73.266;2022-08-01T02:35:06;9.88;;;8.73;;
59167;SDS011;44948;55.046;73.266;2022-08-01T02:37:16;9.85;;;8.32;;
59167;SDS011;44948;55.046;73.266;2022-08-01T02:44:30;10.68;;;8.52;;
59167;SDS011;44948;55.046;73.266;2022-08-01T02:47:04;9.88;;;8.40;;
59167;SDS011;44948;55.046;73.266;2022-08-01T02:51:20;12.00;;;9.20;;
59167;SDS011;44948;55.046;73.266;2022-08-01T02:53:12;12.65;;;9.38;;
59167;SDS011;44948;55.046;73.266;2022-08-01T02:55:08;12.18;;;9.05;;
59167;SDS011;44948;55.046;73.266;2022-08-01T02:57:22;11.00;;;9.07;;
59167;SDS011;44948;55.046;73.266;2022-08-01T02:59:55;11.15;;;8.93;;
59167;SDS011;44948;55.046;73.266;2022-08-01T03:01:57;10.63;;;8.80;;
59167;SDS011;44948;55.046;73.266;2022-08-01T03:04:11;10.45;;;8.60;;
59167;SDS011;44948;55.046;73.266;2022-08-01T03:06:04;10.38;;;8.45;;
59167;SDS011;44948;55.046;73.266;2022-08-01T03:08:03;10.27;;;9.18;;
59167;SDS011;44948;55.046;73.266;2022-08-01T03:09:55;9.43;;;8.45;;
59167;SDS011;44948;55.046;73.266;2022-08-01T03:15:00;10.68;;;9.30;;
59167;SDS011;44948;55.046;73.266;2022-08-01T03:17:28;10.35;;;9.30;;
59167;SDS011;44948;55.046;73.266;2022-08-01T03:19:28;10.80;;;9.23;;
59167;SDS011;44948;55.046;73.266;2022-08-01T03:21:44;10.77;;;9.60;;
59167;SDS011;44948;55.046;73.266;2022-08-01T03:26:30;11.48;;;9.55;;
59167;SDS011;44948;55.046;73.266;2022-08-01T03:28:44;10.65;;;9.57;;
59167;SDS011;44948;55.046;73.266;2022-08-01T03:30:50;10.70;;;9.52;;
59167;SDS011;44948;55.046;73.266;2022-08-01T03:34:53;12.95;;;10.85;;
59167;SDS011;44948;55.046;73.266;2022-08-01T03:37:08;13.73;;;11.38;;
59167;SDS011;44948;55.046;73.266;2022-08-01T03:43:16;12.88;;;11.57;;
59167;SDS011;44948;55.046;73.266;2022-08-01T03:45:44;20.70;;;12.38;;
59167;SDS011;44948;55.046;73.266;2022-08-01T03:48:05;13.00;;;11.70;;
59167;SDS011;44948;55.046;73.266;2022-08-01T03:55:53;15.23;;;12.23;;
59167;SDS011;44948;55.046;73.266;2022-08-01T03:58:42;15.05;;;12.77;;
59167;SDS011;44948;55.046;73.266;2022-08-01T04:00:57;14.05;;;12.65;;
59167;SDS011;44948;55.046;73.266;2022-08-01T04:03:33;16.13;;;13.43;;
59167;SDS011;44948;55.046;73.266;2022-08-01T04:05:42;15.55;;;13.85;;
59167;SDS011;44948;55.046;73.266;2022-08-01T04:07:35;15.68;;;14.07;;
59167;SDS011;44948;55.046;73.266;2022-08-01T04:09:37;17.02;;;14.85;;
59167;SDS011;44948;55.046;73.266;2022-08-01T04:12:20;16.02;;;14.35;;
59167;SDS011;44948;55.046;73.266;2022-08-01T04:14:40;16.10;;;14.40;;
59167;SDS011;44948;55.046;73.266;2022-08-01T04:17:29;17.88;;;14.30;;
59167;SDS011;44948;55.046;73.266;2022-08-01T04:19:45;16.55;;;14.90;;
59167;SDS011;44948;55.046;73.266;2022-08-01T04:21:49;18.70;;;16.80;;
59167;SDS011;44948;55.046;73.266;2022-08-01T04:24:17;19.67;;;16.02;;
59167;SDS011;44948;55.046;73.266;2022-08-01T04:26:29;18.67;;;16.38;;
59167;SDS011;44948;55.046;73.266;2022-08-01T04:28:36;17.63;;;15.70;;
59167;SDS011;44948;55.046;73.266;2022-08-01T04:32:12;23.42;;;16.65;;
59167;SDS011;44948;55.046;73.266;2022-08-01T04:34:46;19.23;;;15.57;;
59167;SDS011;44948;55.046;73.266;2022-08-01T04:36:44;18.92;;;16.77;;
59167;SDS011;44948;55.046;73.266;2022-08-01T04:45:22;17.77;;;15.02;;
59167;SDS011;44948;55.046;73.266;2022-08-01T04:47:47;18.65;;;15.40;;
59167;SDS011;44948;55.046;73.266;2022-08-01T04:49:49;17.23;;;14.82;;
59167;SDS011;44948;55.046;73.266;2022-08-01T04:51:55;15.43;;;13.73;;
59167;SDS011;44948;55.046;73.266;2022-08-01T04:53:58;17.25;;;13.55;;
59167;SDS011;44948;55.046;73.266;2022-08-01T04:55:56;16.42;;;14.25;;
59167;SDS011;44948;55.046;73.266;2022-08-01T04:58:01;19.67;;;14.30;;
59167;SDS011;44948;55.046;73.266;2022-08-01T04:59:52;15.52;;;13.77;;
59167;SDS011;44948;55.046;73.266;2022-08-01T05:01:56;18.38;;;14.07;;
59167;SDS011;44948;55.046;73.266;2022-08-01T05:03:50;15.00;;;13.50;;
59167;SDS011;44948;55.046;73.266;2022-08-01T05:05:42;22.63;;;12.98;;
59167;SDS011;44948;55.046;73.266;2022-08-01T05:07:57;17.25;;;12.90;;
59167;SDS011;44948;55.046;73.266;2022-08-01T05:09:50;14.23;;;12.13;;
59167;SDS011;44948;55.046;73.266;2022-08-01T05:11:41;16.00;;;12.00;;
59167;SDS011;44948;55.046;73.266;2022-08-01T05:13:50;15.27;;;12.23;;
59167;SDS011;44948;55.046;73.266;2022-08-01T05:15:35;20.27;;;12.15;;
59167;SDS011;44948;55.046;73.266;2022-08-01T05:17:26;13.75;;;11.38;;
59167;SDS011;44948;55.046;73.266;2022-08-01T05:19:08;13.88;;;12.48;;
59167;SDS011;44948;55.046;73.266;2022-08-01T05:20:56;13.82;;;11.60;;
59167;SDS011;44948;55.046;73.266;2022-08-01T05:22:41;14.30;;;12.45;;
59167;SDS011;44948;55.046;73.266;2022-08-01T05:24:41;12.70;;;11.50;;
59167;SDS011;44948;55.046;73.266;2022-08-01T05:26:34;13.93;;;11.23;;
59167;SDS011;44948;55.046;73.266;2022-08-01T05:28:25;12.90;;;11.52;;
59167;SDS011;44948;55.046;73.266;2022-08-01T05:30:16;14.27;;;11.98;;
59167;SDS011;44948;55.046;73.266;2022-08-01T05:32:08;13.63;;;12.15;;
59167;SDS011;44948;55.046;73.266;2022-08-01T05:33:55;13.13;;;11.75;;
59167;SDS011;44948;55.046;73.266;2022-08-01T05:35:42;13.43;;;11.48;;
59167;SDS011;44948;55.046;73.266;2022-08-01T05:37:31;18.38;;;12.90;;
59167;SDS011;44948;55.046;73.266;2022-08-01T05:39:48;17.10;;;13.05;;
59167;SDS011;44948;55.046;73.266;2022-08-01T05:41:39;14.13;;;11.52;;
59167;SDS011;44948;55.046;73.266;2022-08-01T05:43:29;13.95;;;11.15;;
59167;SDS011;44948;55.046;73.266;2022-08-01T05:45:20;14.40;;;10.70;;
59167;SDS011;44948;55.046;73.266;2022-08-01T05:47:27;17.42;;;11.98;;
59167;SDS011;44948;55.046;73.266;2022-08-01T05:49:18;13.23;;;10.88;;
59167;SDS011;44948;55.046;73.266;2022-08-01T05:51:09;15.65;;;11.07;;
59167;SDS011;44948;55.046;73.266;2022-08-01T05:52:56;13.45;;;11.48;;
59167;SDS011;44948;55.046;73.266;2022-08-01T05:54:49;12.52;;;11.23;;
59167;SDS011;44948;55.046;73.266;2022-08-01T05:56:35;13.02;;;10.52;;
59167;SDS011;44948;55.046;73.266;2022-08-01T05:58:35;13.77;;;10.93;;
59167;SDS011;44948;55.046;73.266;2022-08-01T06:00:18;13.10;;;10.90;;
59167;SDS011;44948;55.046;73.266;2022-08-01T06:02:06;11.88;;;10.23;;
59167;SDS011;44948;55.046;73.266;2022-08-01T06:03:55;16.65;;;11.63;;
59167;SDS011;44948;55.046;73.266;2022-08-01T06:05:42;17.05;;;11.70;;
59167;SDS011;44948;55.046;73.266;2022-08-01T06:07:33;15.10;;;10.20;;
59167;SDS011;44948;55.046;73.266;2022-08-01T06:09:39;18.20;;;11.07;;
59167;SDS011;44948;55.046;73.266;2022-08-01T06:11:46;15.18;;;11.10;;
59167;SDS011;44948;55.046;73.266;2022-08-01T06:13:40;13.73;;;10.57;;
59167;SDS011;44948;55.046;73.266;2022-08-01T06:15:33;14.80;;;11.30;;
59167;SDS011;44948;55.046;73.266;2022-08-01T06:17:24;13.80;;;10.52;;
59167;SDS011;44948;55.046;73.266;2022-08-01T06:19:15;13.15;;;10.35;;
59167;SDS011;44948;55.046;73.266;2022-08-01T06:21:04;13.77;;;11.18;;
59167;SDS011;44948;55.046;73.266;2022-08-01T06:22:55;17.98;;;11.85;;
59167;SDS011;44948;55.046;73.266;2022-08-01T06:25:01;14.70;;;11.43;;
59167;SDS011;44948;55.046;73.266;2022-08-01T06:27:02;13.55;;;10.65;;
59167;SDS011;44948;55.046;73.266;2022-08-01T06:28:57;14.02;;;11.27;;
59167;SDS011;44948;55.046;73.266;2022-08-01T06:30:58;15.52;;;11.35;;
59167;SDS011;44948;55.046;73.266;2022-08-01T06:32:57;13.00;;;10.75;;
59167;SDS011;44948;55.046;73.266;2022-08-01T06:34:41;14.20;;;12.60;;
59167;SDS011;44948;55.046;73.266;2022-08-01T06:36:30;14.90;;;11.05;;
59167;SDS011;44948;55.046;73.266;2022-08-01T06:38:20;13.00;;;11.55;;
59167;SDS011;44948;55.046;73.266;2022-08-01T06:40:17;13.10;;;11.80;;
59167;SDS011;44948;55.046;73.266;2022-08-01T06:42:06;13.80;;;11.98;;
59167;SDS011;44948;55.046;73.266;2022-08-01T06:43:55;13.98;;;11.38;;
59167;SDS011;44948;55.046;73.266;2022-08-01T06:46:01;12.60;;;11.30;;
59167;SDS011;44948;55.046;73.266;2022-08-01T06:48:00;14.93;;;11.18;;
59167;SDS011;44948;55.046;73.266;2022-08-01T06:50:00;12.73;;;11.18;;
59167;SDS011;44948;55.046;73.266;2022-08-01T06:52:03;16.38;;;11.02;;
59167;SDS011;44948;55.046;73.266;2022-08-01T06:53:48;11.15;;;10.05;;
59167;SDS011;44948;55.046;73.266;2022-08-01T06:55:46;12.25;;;10.40;;
59167;SDS011;44948;55.046;73.266;2022-08-01T06:57:33;11.43;;;10.23;;
59167;SDS011;44948;55.046;73.266;2022-08-01T06:59:57;12.07;;;9.80;;
59167;SDS011;44948;55.046;73.266;2022-08-01T07:01:50;11.73;;;10.52;;
59167;SDS011;44948;55.046;73.266;2022-08-01T07:03:41;11.10;;;9.88;;
59167;SDS011;44948;55.046;73.266;2022-08-01T07:05:31;11.77;;;10.60;;
59167;SDS011;44948;55.046;73.266;2022-08-01T07:07:27;11.55;;;10.35;;
59167;SDS011;44948;55.046;73.266;2022-08-01T07:09:36;11.90;;;9.88;;
59167;SDS011;44948;55.046;73.266;2022-08-01T07:11:39;11.48;;;9.95;;
59167;SDS011;44948;55.046;73.266;2022-08-01T07:13:47;14.38;;;10.27;;
59167;SDS011;44948;55.046;73.266;2022-08-01T07:15:47;10.52;;;9.43;;
59167;SDS011;44948;55.046;73.266;2022-08-01T07:17:37;12.27;;;9.05;;
59167;SDS011;44948;55.046;73.266;2022-08-01T07:19:32;12.23;;;9.30;;
59167;SDS011;44948;55.046;73.266;2022-08-01T07:21:29;13.98;;;9.27;;
59167;SDS011;44948;55.046;73.266;2022-08-01T07:23:45;12.18;;;9.00;;
59167;SDS011;44948;55.046;73.266;2022-08-01T07:25:35;14.13;;;9.25;;
59167;SDS011;44948;55.046;73.266;2022-08-01T07:27:29;10.73;;;8.88;;
59167;SDS011;44948;55.046;73.266;2022-08-01T07:29:15;15.43;;;8.75;;
59167;SDS011;44948;55.046;73.266;2022-08-01T07:31:03;11.88;;;9.50;;
59167;SDS011;44948;55.046;73.266;2022-08-01T07:34:43;18.10;;;10.45;;
59167;SDS011;44948;55.046;73.266;2022-08-01T07:36:47;14.15;;;9.40;;
59167;SDS011;44948;55.046;73.266;2022-08-01T07:38:35;11.38;;;8.65;;
59167;SDS011;44948;55.046;73.266;2022-08-01T07:40:38;12.45;;;9.48;;
59167;SDS011;44948;55.046;73.266;2022-08-01T07:42:53;13.18;;;9.63;;
59167;SDS011;44948;55.046;73.266;2022-08-01T07:45:28;12.68;;;9.65;;
59167;SDS011;44948;55.046;73.266;2022-08-01T07:47:44;12.07;;;9.20;;
59167;SDS011;44948;55.046;73.266;2022-08-01T07:49:38;14.85;;;8.95;;
59167;SDS011;44948;55.046;73.266;2022-08-01T07:51:29;9.27;;;7.82;;
59167;SDS011;44948;55.046;73.266;2022-08-01T07:53:37;11.93;;;8.40;;
59167;SDS011;44948;55.046;73.266;2022-08-01T07:55:33;13.13;;;9.73;;
59167;SDS011;44948;55.046;73.266;2022-08-01T07:57:28;11.55;;;8.48;;
59167;SDS011;44948;55.046;73.266;2022-08-01T07:59:14;11.00;;;8.38;;
59167;SDS011;44948;55.046;73.266;2022-08-01T08:01:07;13.15;;;9.45;;
59167;SDS011;44948;55.046;73.266;2022-08-01T08:03:04;15.60;;;9.27;;
59167;SDS011;44948;55.046;73.266;2022-08-01T08:05:19;14.43;;;8.75;;
59167;SDS011;44948;55.046;73.266;2022-08-01T08:07:23;13.55;;;9.00;;
59167;SDS011;44948;55.046;73.266;2022-08-01T08:09:10;13.50;;;7.95;;
59167;SDS011;44948;55.046;73.266;2022-08-01T08:11:01;9.93;;;7.00;;
59167;SDS011;44948;55.046;73.266;2022-08-01T08:13:04;8.50;;;7.00;;
59167;SDS011;44948;55.046;73.266;2022-08-01T08:14:50;10.10;;;7.03;;
59167;SDS011;44948;55.046;73.266;2022-08-01T08:16:42;9.48;;;6.80;;
59167;SDS011;44948;55.046;73.266;2022-08-01T08:18:37;8.80;;;6.85;;
59167;SDS011;44948;55.046;73.266;2022-08-01T08:22:37;9.18;;;6.75;;
59167;SDS011;44948;55.046;73.266;2022-08-01T08:24:26;8.70;;;6.88;;
59167;SDS011;44948;55.046;73.266;2022-08-01T08:26:26;9.95;;;6.93;;
59167;SDS011;44948;55.046;73.266;2022-08-01T08:30:09;10.88;;;4.00;;
59167;SDS011;44948;55.046;73.266;2022-08-01T08:31:53;7.90;;;3.78;;
59167;SDS011;44948;55.046;73.266;2022-08-01T08:33:41;8.80;;;3.55;;
59167;SDS011;44948;55.046;73.266;2022-08-01T08:35:32;10.50;;;3.95;;
59167;SDS011;44948;55.046;73.266;2022-08-01T08:37:38;9.23;;;2.72;;
59167;SDS011;44948;55.046;73.266;2022-08-01T08:39:50;5.13;;;2.13;;
59167;SDS011;44948;55.046;73.266;2022-08-01T08:41:50;8.48;;;2.72;;
59167;SDS011;44948;55.046;73.266;2022-08-01T08:43:42;6.10;;;3.17;;
59167;SDS011;44948;55.046;73.266;2022-08-01T08:45:58;7.30;;;3.38;;
59167;SDS011;44948;55.046;73.266;2022-08-01T08:47:59;7.03;;;2.95;;
59167;SDS011;44948;55.046;73.266;2022-08-01T08:49:56;6.38;;;2.90;;
59167;SDS011;44948;55.046;73.266;2022-08-01T08:51:57;4.80;;;2.35;;
59167;SDS011;44948;55.046;73.266;2022-08-01T08:54:27;5.38;;;2.90;;
59167;SDS011;44948;55.046;73.266;2022-08-01T08:56:23;3.90;;;2.40;;
59167;SDS011;44948;55.046;73.266;2022-08-01T08:58:19;6.32;;;2.65;;
59167;SDS011;44948;55.046;73.266;2022-08-01T09:00:09;6.25;;;3.05;;
59167;SDS011;44948;55.046;73.266;2022-08-01T09:02:03;7.60;;;2.97;;
59167;SDS011;44948;55.046;73.266;2022-08-01T09:03:56;7.05;;;3.40;;
59167;SDS011;44948;55.046;73.266;2022-08-01T09:06:17;5.10;;;2.70;;
59167;SDS011;44948;55.046;73.266;2022-08-01T09:08:07;2.50;;;2.28;;
59167;SDS011;44948;55.046;73.266;2022-08-01T09:10:00;4.22;;;2.95;;
59167;SDS011;44948;55.046;73.266;2022-08-01T09:12:02;6.07;;;2.65;;
59167;SDS011;44948;55.046;73.266;2022-08-01T09:14:13;4.40;;;3.05;;
59167;SDS011;44948;55.046;73.266;2022-08-01T09:21:29;9.05;;;2.42;;
59167;SDS011;44948;55.046;73.266;2022-08-01T09:25:33;5.45;;;2.80;;
59167;SDS011;44948;55.046;73.266;2022-08-01T09:27:48;6.43;;;2.75;;
59167;SDS011;44948;55.046;73.266;2022-08-01T09:30:06;6.47;;;2.08;;
59167;SDS011;44948;55.046;73.266;2022-08-01T09:32:07;3.92;;;1.90;;
59167;SDS011;44948;55.046;73.266;2022-08-01T09:34:09;10.63;;;2.40;;
59167;SDS011;44948;55.046;73.266;2022-08-01T09:35:57;7.55;;;2.47;;
59167;SDS011;44948;55.046;73.266;2022-08-01T09:37:49;3.78;;;2.17;;
59167;SDS011;44948;55.046;73.266;2022-08-01T09:40:04;6.10;;;2.15;;
59167;SDS011;44948;55.046;73.266;2022-08-01T09:44:13;4.60;;;2.53;;
59167;SDS011;44948;55.046;73.266;2022-08-01T09:46:08;6.72;;;1.95;;
59167;SDS011;44948;55.046;73.266;2022-08-01T09:51:37;2.30;;;2.03;;
59167;SDS011;44948;55.046;73.266;2022-08-01T09:53:46;2.50;;;2.00;;
59167;SDS011;44948;55.046;73.266;2022-08-01T09:55:48;2.83;;;1.80;;
59167;SDS011;44948;55.046;73.266;2022-08-01T09:57:40;4.40;;;2.22;;
59167;SDS011;44948;55.046;73.266;2022-08-01T09:59:49;3.67;;;2.10;;
59167;SDS011;44948;55.046;73.266;2022-08-01T10:01:47;11.25;;;3.45;;
59167;SDS011;44948;55.046;73.266;2022-08-01T10:06:26;7.07;;;2.20;;
59167;SDS011;44948;55.046;73.266;2022-08-01T10:08:24;6.32;;;2.75;;
59167;SDS011;44948;55.046;73.266;2022-08-01T10:10:18;7.35;;;2.25;;
59167;SDS011;44948;55.046;73.266;2022-08-01T10:12:23;5.72;;;2.30;;
59167;SDS011;44948;55.046;73.266;2022-08-01T10:14:32;4.35;;;2.10;;
59167;SDS011;44948;55.046;73.266;2022-08-01T10:16:43;3.15;;;1.90;;
59167;SDS011;44948;55.046;73.266;2022-08-01T10:18:57;4.15;;;1.83;;
59167;SDS011;44948;55.046;73.266;2022-08-01T10:20:52;7.30;;;2.15;;
59167;SDS011;44948;55.046;73.266;2022-08-01T10:22:42;7.30;;;2.10;;
59167;SDS011;44948;55.046;73.266;2022-08-01T10:26:48;3.15;;;2.13;;
59167;SDS011;44948;55.046;73.266;2022-08-01T10:28:47;5.13;;;2.20;;
59167;SDS011;44948;55.046;73.266;2022-08-01T10:30:49;8.60;;;2.20;;
59167;SDS011;44948;55.046;73.266;2022-08-01T10:32:43;5.63;;;2.50;;
59167;SDS011;44948;55.046;73.266;2022-08-01T10:34:42;4.20;;;2.78;;
59167;SDS011;44948;55.046;73.266;2022-08-01T10:36:33;14.98;;;3.90;;
59167;SDS011;44948;55.046;73.266;2022-08-01T10:38:28;7.47;;;2.92;;
59167;SDS011;44948;55.046;73.266;2022-08-01T10:40:37;5.63;;;1.70;;
59167;SDS011;44948;55.046;73.266;2022-08-01T10:42:39;5.82;;;1.90;;
59167;SDS011;44948;55.046;73.266;2022-08-01T10:44:27;1.95;;;1.50;;
59167;SDS011;44948;55.046;73.266;2022-08-01T10:46:28;3.63;;;1.40;;
59167;SDS011;44948;55.046;73.266;2022-08-01T10:51:15;15.77;;;7.00;;
59167;SDS011;44948;55.046;73.266;2022-08-01T10:53:30;31.73;;;15.43;;
59167;SDS011;44948;55.046;73.266;2022-08-01T10:55:19;22.63;;;9.48;;
59167;SDS011;44948;55.046;73.266;2022-08-01T10:57:07;7.18;;;3.55;;
59167;SDS011;44948;55.046;73.266;2022-08-01T11:03:35;5.15;;;1.80;;
59167;SDS011;44948;55.046;73.266;2022-08-01T11:08:06;2.08;;;1.40;;
59167;SDS011;44948;55.046;73.266;2022-08-01T11:10:24;8.55;;;2.33;;
59167;SDS011;44948;55.046;73.266;2022-08-01T11:12:21;2.42;;;1.50;;
59167;SDS011;44948;55.046;73.266;2022-08-01T11:16:46;2.65;;;1.00;;
59167;SDS011;44948;55.046;73.266;2022-08-01T11:18:34;2.10;;;1.10;;
59167;SDS011;44948;55.046;73.266;2022-08-01T11:20:34;10.05;;;2.08;;
59167;SDS011;44948;55.046;73.266;2022-08-01T11:29:14;4.93;;;1.05;;
59167;SDS011;44948;55.046;73.266;2022-08-01T11:33:14;2.97;;;1.10;;
59167;SDS011;44948;55.046;73.266;2022-08-01T11:35:25;4.13;;;1.50;;
59167;SDS011;44948;55.046;73.266;2022-08-01T11:37:32;5.00;;;1.30;;
59167;SDS011;44948;55.046;73.266;2022-08-01T11:39:34;7.53;;;1.33;;
59167;SDS011;44948;55.046;73.266;2022-08-01T11:43:24;1.92;;;1.00;;
59167;SDS011;44948;55.046;73.266;2022-08-01T11:48:17;3.55;;;0.98;;
59167;SDS011;44948;55.046;73.266;2022-08-01T11:52:36;7.55;;;1.30;;
59167;SDS011;44948;55.046;73.266;2022-08-01T11:54:46;13.80;;;1.90;;
59167;SDS011;44948;55.046;73.266;2022-08-01T11:56:39;8.32;;;2.13;;
59167;SDS011;44948;55.046;73.266;2022-08-01T11:58:45;11.63;;;2.08;;
59167;SDS011;44948;55.046;73.266;2022-08-01T12:00:37;9.43;;;1.58;;
59167;SDS011;44948;55.046;73.266;2022-08-01T12:02:45;6.55;;;1.23;;
59167;SDS011;44948;55.046;73.266;2022-08-01T12:04:51;5.85;;;1.20;;
59167;SDS011;44948;55.046;73.266;2022-08-01T12:06:46;4.80;;;1.30;;
59167;SDS011;44948;55.046;73.266;2022-08-01T12:09:19;2.38;;;0.98;;
59167;SDS011;44948;55.046;73.266;2022-08-01T12:11:14;3.15;;;0.80;;
59167;SDS011;44948;55.046;73.266;2022-08-01T12:13:19;4.85;;;0.80;;
59167;SDS011;44948;55.046;73.266;2022-08-01T12:15:20;2.88;;;0.90;;
59167;SDS011;44948;55.046;73.266;2022-08-01T12:17:15;3.80;;;0.93;;
59167;SDS011;44948;55.046;73.266;2022-08-01T12:19:11;2.92;;;1.15;;
59167;SDS011;44948;55.046;73.266;2022-08-01T12:21:21;5.13;;;1.00;;
59167;SDS011;44948;55.046;73.266;2022-08-01T12:23:10;1.48;;;0.90;;
59167;SDS011;44948;55.046;73.266;2022-08-01T12:25:09;2.40;;;0.70;;
59167;SDS011;44948;55.046;73.266;2022-08-01T12:27:25;5.10;;;1.42;;
59167;SDS011;44948;55.046;73.266;2022-08-01T12:29:43;2.42;;;0.90;;
59167;SDS011;44948;55.046;73.266;2022-08-01T12:31:35;2.05;;;0.80;;
59167;SDS011;44948;55.046;73.266;2022-08-01T12:33:54;1.05;;;0.77;;
59167;SDS011;44948;55.046;73.266;2022-08-01T12:38:07;1.60;;;0.80;;
59167;SDS011;44948;55.046;73.266;2022-08-01T12:40:24;1.42;;;0.80;;
59167;SDS011;44948;55.046;73.266;2022-08-01T12:42:24;1.45;;;0.80;;
59167;SDS011;44948;55.046;73.266;2022-08-01T12:44:29;3.08;;;1.35;;
59167;SDS011;44948;55.046;73.266;2022-08-01T12:46:39;1.67;;;0.88;;
59167;SDS011;44948;55.046;73.266;2022-08-01T12:48:40;4.85;;;1.00;;
59167;SDS011;44948;55.046;73.266;2022-08-01T12:50:29;2.03;;;1.20;;
59167;SDS011;44948;55.046;73.266;2022-08-01T12:52:31;1.23;;;0.70;;
59167;SDS011;44948;55.046;73.266;2022-08-01T12:54:25;2.92;;;1.00;;
59167;SDS011;44948;55.046;73.266;2022-08-01T12:56:08;4.57;;;0.73;;
59167;SDS011;44948;55.046;73.266;2022-08-01T12:58:11;4.32;;;0.90;;
59167;SDS011;44948;55.046;73.266;2022-08-01T13:05:07;1.67;;;0.90;;
59167;SDS011;44948;55.046;73.266;2022-08-01T13:07:13;2.95;;;0.88;;
59167;SDS011;44948;55.046;73.266;2022-08-01T13:09:05;2.00;;;0.98;;
59167;SDS011;44948;55.046;73.266;2022-08-01T13:15:43;6.35;;;1.00;;
59167;SDS011;44948;55.046;73.266;2022-08-01T13:17:33;2.78;;;0.80;;
59167;SDS011;44948;55.046;73.266;2022-08-01T13:19:40;2.40;;;1.00;;
59167;SDS011;44948;55.046;73.266;2022-08-01T13:21:31;5.88;;;1.63;;
59167;SDS011;44948;55.046;73.266;2022-08-01T13:23:37;5.55;;;1.02;;
59167;SDS011;44948;55.046;73.266;2022-08-01T13:25:30;5.50;;;1.10;;
59167;SDS011;44948;55.046;73.266;2022-08-01T13:27:27;2.78;;;1.15;;
59167;SDS011;44948;55.046;73.266;2022-08-01T13:29:17;3.90;;;1.50;;
59167;SDS011;44948;55.046;73.266;2022-08-01T13:31:06;3.33;;;1.50;;
59167;SDS011;44948;55.046;73.266;2022-08-01T13:32:58;3.90;;;1.30;;
59167;SDS011;44948;55.046;73.266;2022-08-01T13:34:47;7.35;;;1.70;;
59167;SDS011;44948;55.046;73.266;2022-08-01T13:36:47;4.43;;;2.25;;
59167;SDS011;44948;55.046;73.266;2022-08-01T13:38:36;5.50;;;2.63;;
59167;SDS011;44948;55.046;73.266;2022-08-01T13:41:05;2.33;;;1.25;;
59167;SDS011;44948;55.046;73.266;2022-08-01T13:42:54;3.53;;;1.00;;
59167;SDS011;44948;55.046;73.266;2022-08-01T13:44:49;2.00;;;0.98;;
59167;SDS011;44948;55.046;73.266;2022-08-01T13:47:24;4.65;;;1.63;;
59167;SDS011;44948;55.046;73.266;2022-08-01T13:49:22;6.05;;;1.92;;
59167;SDS011;44948;55.046;73.266;2022-08-01T13:51:10;9.52;;;2.55;;
59167;SDS011;44948;55.046;73.266;2022-08-01T13:52:58;7.97;;;2.67;;